Nashville, TN (37221)

10:16 PM CDT on July 23, 2016 (GMT -0500)
Horseshoe Bend | | Change Station

Elev 571 ft 36.05 °N, 86.93 °W | Updated 5 minutes ago

Mostly Cloudy
Mostly Cloudy
74.8 °F
Feels Like 72 °F
N
0.0
Wind Variable Wind from South

Today
High -- | Low -- °F
--% Chance of Precip.
Yesterday
High -- | Low -- °F
Precip. -- in
Pressure 29.98 in
Visibility 10.0 miles
Clouds Few 5000 ft
Scattered Clouds 14000 ft
Mostly Cloudy 25000 ft
Heat Index 72 °F
Dew Point 74 °F
Humidity 99%
Rainfall 0.00 in
Snow Depth Not available.
5:48 AM 7:59 PM
Waning Gibbous, 80% visible
METAR KBNA 240253Z 20003KT 10SM FEW050 SCT140 BKN250 26/22 A3000 RMK AO2 SLP151 T02610222 51012
Pressure 29.98 in
Visibility 10.0 miles
Clouds Few 5000 ft
Scattered Clouds 14000 ft
Mostly Cloudy 25000 ft
Heat Index 72 °F
Dew Point 74 °F
Humidity 99%
Rainfall 0.00 in
Snow Depth Not available.
5:48 AM 7:59 PM
Waning Gibbous, 80% visible
METAR KBNA 240253Z 20003KT 10SM FEW050 SCT140 BKN250 26/22 A3000 RMK AO2 SLP151 T02610222 51012

10-Day Weather Forecast

Almanac

Astronomy

Jul. 23, 2016 Rise Set
Actual Time
Civil Twilight
Nautical Twilight
Astronomical Twilight
Moon
Length of Visible Light
Length of Day
Tomorrow will be .
, % of the Moon is Illuminated

Today's Extremes

State Highs State Lows

Community

WunderPhotos

Upload Photos

1,927,016 photos uploaded!

WunderBlog® & News

Nearby

Air Quality

  Air Quality AQ Index Pollutant
Not available.

Snow Depth

Station Depth Elevation

Earthquake Activity

City Distance Mag. Time & Date
Minimum magnitude displayed is 2.5.

Coastal Water Temperatures

Place Temperature

Stations

Nearby Weather Stations

Station Location Temp. Windchill Dew Point Humidity Wind Precip. Elev Updated Type
                   

Watches & Warnings

There are currently no watches in effect.